Share

Animas, NM

Rodeo, NM (KNMRODEO2) Elev 4236 ft | 31.80 °N, 109.02 °W | Change Station
Active Advisory: Fire Weather Watch

Current weather conditions updated 0 second ago

Clear
Clear
62.1 °F
Feels Like 62.1 °F
N
2.9
Wind Variable Wind from NNE
Gusts 4.9 mph
Sunrise 6:40 AM
Sunset 7:47 PM
Moon Waning Gibbous

Today is forecast to be Warmer than yesterday.

Pressure 30.06 in
Visibility 10.0 miles
Clouds Clear
Dew Point 45 °F
Humidity 54%
Rainfall 0.00 in
Snow Depth Not available.
UV 5 out of 16
Pollen 6.90 out of 12
Air Quality Not available.
Flu Activity Local Activity
METAR KDUG 201556Z AUTO 00000KT 10SM CLR 15/06 A3017 RMK AO2 SLP178 T01500061

More Conditions Fewer Conditions

Pressure 30.06 in
Visibility 10.0 miles
Clouds Clear
Dew Point 45 °F
Humidity 54%
Rainfall 0.00 in
Snow Depth Not available.
UV 5 out of 16
Pollen 6.90 out of 12
Air Quality Not available.
Flu Activity Local Activity
METAR KDUG 201556Z AUTO 00000KT 10SM CLR 15/06 A3017 RMK AO2 SLP178 T01500061

More Conditions Fewer Conditions

10-Day Weather Forecast

Almanac

Astronomy

Apr. 20, 2014 Rise Set
Actual Time 6:40 AM MDT 7:47 PM MDT
Civil Twilight 6:15 AM MDT 8:13 PM MDT
Nautical Twilight 5:45 AM MDT 8:43 PM MDT
Astronomical Twilight 5:14 AM MDT 9:14 PM MDT
Moon 12:23 AM MDT 11:11 AM MDT
Length of Visible Light 13h 57m
Length of Day
13h 07m
Tomorrow will be 1m 48s longer.
Waning Gibbous, 69% of the Moon is Illuminated
Today
Waning Gibbous
Apr 22
Last Quarter
Apr 29
New
May 6
First Quarter
May 14
Full

Today's Extremes

State Highs State Lows

Community

  • Columbine
    Columbine
  • Easter Sunrise
    Easter Sunrise
  • Easter Eve - The Promise - Lake Palestine, TX
    Easter Eve - The Promise - Lake Palestine, TX
  • Happy Easter
    Happy Easter
  • EARLY FOGGY MORNING
    EARLY FOGGY MORNING

WunderPhotos

Upload Photos

1,703,262 photos uploaded!

WunderBlogs® & News

Nearby

Snow Depth

Station Depth Elevation
Signal Peak 0 in 8360 ft
McKnight Cabin 2 in 9240 ft
Silver Creek Divide 2 in 9000 ft
Lookout Mountain 0 in 8500 ft
Frisco Divide 0 in 8000 ft

Coastal Water Temperatures

Place Temperature
No Stations Reporting

Earthquake Activity

City Distance Mag. Time & Date
No recent earthquake activity has been reported nearby.
Minimum magnitude displayed is 2.5.

Nearby Weather Stations

Station Location Temp. Dew Point Humidity Wind Precip. Elev Updated Type
Rodeo Airport, Rodeo, NM 67.3 °F - - SSW  at  0.0 mph 0.00 in / hr 4157 ft 10:05 AM MDT Rapid Fire
Rodeo, NM, Rodeo, NM 62.1 °F 45 °F 54% NNE  at  2.9 mph 0.00 in / hr 4236 ft 10:05 AM MDT Rapid Fire
Horseshoe Creek, Portal, AZ 62.8 °F 45 °F 52% ESE  at  3.0 mph 0.00 in / hr 4235 ft 8:13 AM MST Rapid Fire
Portal - Limestone Mtn, Portal, AZ 61.2 °F 40 °F 46% NNW  at  0.0 mph 0.00 in / hr 5367 ft 9:00 AM MST Normal

Show More Stations Show Fewer Stations

What do you think?

We're not finished. Please let us know what you like, what you don't like, and what you are still missing.